Aviation Digital Data Service (ADDS)

Output produced by METARs form (0103 UTC 26 February 2017)
found at http://www.aviationweather.gov/adds/metars/
 
KBOS 260054Z 17008KT 2SM -RA BR BKN007 OVC014 13/13 A2950 RMK AO2 RAE27B47DZB43E47 SLP988 P0001 T01330133
KBOS 260051Z 2601/2706 17007KT 3SM BR VCSH BKN007 OVC014 
     FM260300 24010G20KT 3SM -SHRA OVC015 
     FM260500 28012G26KT P6SM VCSH BKN045 
     FM260600 29013G27KT P6SM BKN040 
     FM260700 29014G28KT P6SM SCT060 
     FM270300 26008KT P6SM SKC
       
KLGA 260051Z 29020G35KT 8SM -RA SCT015 BKN020 OVC038 12/08 A2958 RMK AO2 PK WND 29035/0048 TSE22 SLP015 P0011 T01220078 $
KLGA 260100Z 2601/2624 29018G30KT 6SM -SHRA BR SCT015 BKN025 
     FM260300 29018G29KT P6SM FEW025 BKN040 
     FM260500 30020G30KT P6SM FEW050 SCT100 
     FM261200 28018G28KT P6SM BKN050 BKN250 
     FM262300 28013G20KT P6SM FEW060
       
KJFK 260051Z 28018G25KT 6SM RA BR FEW011 BKN019 OVC060 13/13 A2956 RMK AO2 TSE07 SLP009 P0024 T01280128
KJFK 260100Z 2601/2706 28018G29KT 6SM -SHRA BR SCT015 BKN025 
     FM260300 29017G27KT P6SM FEW025 BKN040 
     FM260500 30020G30KT P6SM FEW050 SCT100 
     FM261200 28018G28KT P6SM BKN050 BKN250 
     FM262300 28013G20KT P6SM FEW060 
     FM270300 27010KT P6SM SCT250
       
KEWR 260051Z 31016G25KT 7SM RA SCT019 BKN037 OVC060 11/09 A2960 RMK AO2 PK WND 29029/0028 RAE09B25 TSE04 SLP022 P0009 T01110089 $
KEWR 260100Z 2601/2706 31015G25KT 6SM -SHRA SCT015 BKN035 
     FM260200 30015G25KT P6SM FEW025 BKN040 
     FM260500 30017G27KT P6SM FEW050 SCT100 
     FM261200 28015G23KT P6SM BKN050 BKN250 
     FM262300 28011G19KT P6SM FEW060 
     FM270200 26009KT P6SM SCT250
       
KPHL 260054Z 33007KT 10SM -RA OVC075 11/07 A2963 RMK AO2 RAE2355B19E31B51 SLP033 P0001 T01110072 $
KPHL 252330Z 2600/2706 30014G24KT P6SM VCSH OVC050 
     FM260200 30018G26KT P6SM BKN050 
     FM260800 30014KT P6SM FEW060 
     FM261400 29015G25KT P6SM BKN060 
     FM262300 29010KT P6SM FEW060
       
KBWI 260054Z 30011KT 10SM FEW090 SCT130 11/02 A2964 RMK AO2 SLP035 T01060022 $
KBWI 252331Z 2600/2706 30015G22KT P6SM SCT070 
     FM262100 28012KT P6SM FEW250 
     FM270200 24004KT P6SM FEW200
       
KDCA 260052Z 31012KT 10SM FEW095 SCT110 13/M01 A2966 RMK AO2 SLP044 T01281006
KDCA 252331Z 2600/2624 32013G29KT P6SM SCT080 
     FM260800 29012G22KT P6SM FEW250 
     FM262000 28011G19KT P6SM FEW250 
     FM262300 24006KT P6SM FEW250
       
KIAD 260052Z 30017G30KT 10SM FEW065 FEW100 11/M03 A2966 RMK AO2 PK WND 30030/0046 SLP042 T01061033
KIAD 252331Z 2600/2706 30013G27KT P6SM FEW100 
     FM260600 30014G21KT P6SM FEW040 
     FM262000 28010G18KT P6SM FEW250 
     FM262300 28006KT P6SM FEW250
       
KCLT 260052Z 31013G20KT 10SM CLR 15/M11 A2980 RMK AO2 SLP088 T01501111
KCLT 260003Z 2600/2624 31007KT P6SM SKC 
     TEMPO 2600/2604 30012G19KT FEW007 
     FM261200 30003KT P6SM SKC 
     FM262100 23004KT P6SM SKC
       
KATL 260052Z 31012KT 10SM CLR 11/M08 A2998 RMK AO2 SLP152 T01061078
KATL 252337Z 2600/2706 31013G18KT P6SM SKC 
     FM260100 31012KT P6SM SKC 
     FM260600 32008KT P6SM SKC 
     FM262200 16005KT P6SM SCT250
       
KTPA 260053Z 25006KT 10SM CLR 22/17 A2996 RMK AO2 SLP143 T02170172
KTPA 252331Z 2600/2624 29009KT P6SM FEW040 
     FM260200 30004KT P6SM FEW200 
     FM260600 34007KT P6SM FEW250 
     FM261100 03009KT P6SM SKC
       
KMCO 260053Z 27006KT 10SM CLR 22/14 A2993 RMK AO2 SLP133 T02220144
KMCO 252339Z 2600/2624 27008KT P6SM FEW060 
     FM260700 34009KT P6SM SKC 
     FM261500 02011KT P6SM SKC
       
KMIA 260053Z 25008KT 10SM FEW041 23/18 A2994 RMK AO2 SLP138 T02330183
KMIA 252343Z 2600/2624 29010KT P6SM SCT050 
     FM260300 33006KT P6SM SCT045 
     FM261400 04008KT P6SM FEW030 SCT060 
     FM261800 08010KT P6SM SCT030 BKN050
       
KFLL 260053Z 21005KT 10SM FEW038 SCT050 24/20 A2992 RMK AO2 SLP130 T02440200
KFLL 252343Z 2600/2624 18006KT P6SM SCT050 
     FM260200 27006KT P6SM SCT060 
     FM260900 32007KT P6SM SCT050 
     FM261400 03008KT P6SM SCT035 SCT050 
     FM261800 08011KT P6SM SCT030 BKN050
       
KDTW 260053Z 27017KT 5SM -SN BKN030 OVC040 M03/M09 A2989 RMK AO2 SLP127 P0000 T10281089 $
KDTW 252320Z 2600/2706 28018G26KT P6SM -SHSN SCT030 BKN040 
     TEMPO 2600/2601 3SM -SHSN BKN028 OVC035 
     FM260200 27013G20KT P6SM SCT025 BKN040 
     FM261000 23011KT P6SM SCT150 BKN250 
     FM261700 22018G30KT P6SM SCT050 BKN070 
     FM270000 20014KT P6SM SCT070
       
KORD 260051Z 28007KT 10SM SCT034 SCT220 M03/M10 A2998 RMK AO2 SLP161 T10331100
KORD 252323Z 2600/2706 28012G22KT P6SM BKN035 
     FM260200 28008KT P6SM SCT150 
     FM261000 21007KT P6SM BKN090 
     FM261400 20016G24KT P6SM BKN060 
     FM261700 21018G28KT P6SM SCT060 
     FM262000 23022G36KT P6SM FEW060 
     FM270200 22014G24KT P6SM SCT250
       
KMDW 260053Z 29007KT 10SM FEW034 BKN250 M03/M11 A2999 RMK AO2 SLP171 T10331106
KMDW 252323Z 2600/2624 29012G22KT P6SM BKN035 
     FM260200 28008KT P6SM SCT150 
     FM261000 21007KT P6SM BKN090 
     FM261400 20016G24KT P6SM BKN060 
     FM261700 21018G28KT P6SM SCT060 
     FM262000 23022G36KT P6SM FEW060
       
KMSP 260053Z 23011KT 10SM FEW034 OVC045 M02/M07 A2987 RMK AO2 SLP129 T10171072
KMSP 252336Z 2600/2706 22009KT P6SM OVC045 
     FM261000 20006KT P6SM SCT025 OVC040 
     FM261800 26012G18KT P6SM OVC045 
     FM262200 29010KT P6SM BKN050
       
KMEM 260054Z 01003KT 10SM CLR 05/M06 A3014 RMK AO2 SLP208 T00501061
KMEM 252332Z 2600/2624 33008KT P6SM SKC 
     FM260100 VRB02KT P6SM SKC 
     FM261400 15009KT P6SM SCT250
       
KDFW 260053Z 00000KT 10SM FEW250 11/M07 A3007 RMK AO2 SLP181 T01061072
KDFW 252332Z 2600/2706 10005KT P6SM FEW250 
     FM261700 16013KT P6SM BKN018 
     FM262100 17012KT P6SM VCSH OVC012 
     FM270200 17012KT 6SM -RA OVC010
       
KIAH 260053Z VRB05KT 10SM FEW070 FEW250 13/02 A3007 RMK AO2 SLP182 T01330022
KIAH 252344Z 2600/2706 01008KT P6SM SKC 
     FM260100 VRB02KT P6SM SKC 
     FM261300 10007KT P6SM FEW025 
     FM261500 11009KT P6SM SCT035 
     FM261700 13012G19KT P6SM BKN040 
     FM262100 15010G19KT P6SM VCSH BKN035 
     FM270000 16011KT P6SM SCT025
       
KDEN 260053Z 33007KT 10SM SCT150 SCT220 M02/M15 A2980 RMK AO2 SLP124 T10221150
KDEN 252320Z 2600/2706 30018G28KT P6SM SCT150 BKN220 
     FM260100 32010KT P6SM SCT150 BKN220 
     FM260300 24008KT P6SM SCT150 SCT220 
     FM260800 21010KT P6SM SCT150 SCT220 
     FM261200 21010KT P6SM SCT220 
     FM261500 18007KT P6SM SCT220 
     FM262100 15007KT P6SM SCT220 
     FM270100 18007KT P6SM SCT220
       
KSLC 260054Z 00000KT 10SM SCT037 SCT065 SCT090 00/M07 A3000 RMK AO2 SLP177 T00001072
KSLC 252345Z 2600/2706 03009KT P6SM SCT050 BKN080 
     FM260300 15005KT P6SM FEW070 
     FM262000 17010KT P6SM SCT150
       
KSEA 260053Z 21006KT 10SM OVC060 06/M01 A3006 RMK AO2 SLP189 T00611006
KSEA 252320Z 2600/2706 21007KT P6SM BKN050 
     FM260400 18008KT P6SM OVC040 
     FM260700 18010KT 5SM -RASN BR OVC030 
     FM261100 16006KT 4SM -SN BR OVC015 
     TEMPO 2612/2616 2SM -SN BR OVC010 
     FM261900 VRB04KT P6SM VCSH BKN030 
     FM262200 36007KT P6SM SCT040
       
KSFO 260056Z 27010KT 10SM FEW045 OVC100 11/03 A3004 RMK AO2 SLP171 T01060028
KSFO 252340Z 2600/2706 35005KT P6SM VCSH FEW030 BKN050 OVC100 
     FM260200 02005KT P6SM BKN050 BKN150 
     FM261100 VRB03KT P6SM FEW020 BKN150 
     FM261500 30005KT P6SM SCT050 BKN200 
     FM262000 30011KT P6SM BKN050 OVC200 
     FM262300 28016KT P6SM BKN050 BKN200 
     FM270300 27010KT P6SM BKN040 BKN200
       
KLAX 260053Z 19006KT 10SM FEW030 SCT060 BKN100 BKN150 13/08 A3001 RMK AO2 SLP164 T01280083
KLAX 260008Z 2600/2706 18007KT P6SM BKN110 OVC150 
     FM260100 23008KT P6SM BKN100 BKN120 
     FM260400 29006KT P6SM BKN100 
     FM260900 06005KT P6SM -SHRA BKN030 OVC050 
     FM261300 09008KT 5SM -RA BR BKN010 OVC021 
     FM261700 14005KT P6SM -SHRA SCT015 BKN025 
     FM262000 18007KT P6SM VCSH BKN020 BKN040 
     FM270500 19007KT 5SM BR VCSH BKN015 OVC030
       
KSAN 260051Z 31006KT 10SM SCT025 BKN250 14/07 A3005 RMK AO2 SLP174 T01440067
KSAN 252341Z 2600/2706 29009KT P6SM BKN200 
     FM260200 VRB04KT P6SM SCT025 BKN100 
     FM260600 VRB04KT P6SM BKN025 BKN100 
     FM261200 VRB04KT P6SM -SHRA BKN020 OVC035 
     FM261800 18008KT P6SM VCSH BKN025 BKN035 
     FM270100 18006KT P6SM BKN025 BKN035
       
KLAS 260056Z 03005KT 10SM FEW120 BKN160 OVC200 11/M09 A2994 RMK AO2 SLP141 T01111089
KLAS 252320Z 2600/2624 VRB05KT P6SM BKN180 
     FM260500 21005KT P6SM BKN180 
     FM261500 VRB05KT P6SM SCT100 BKN150
       
KPHX 260051Z 23003KT 10SM SCT130 SCT170 BKN210 17/M06 A2995 RMK AO2 SLP136 T01721056
KPHX 252323Z 2600/2624 26005KT P6SM BKN250 
     FM260600 09008KT P6SM FEW120 BKN250 
     FM261800 27008KT P6SM SCT080 BKN120
       
KSDF 260056Z 29010KT 10SM FEW050 02/M09 A3007 RMK AO2 SLP187 T00221094
KSDF 252320Z 2600/2706 28011KT P6SM BKN050 
     FM260300 26006KT P6SM SKC 
     FM261300 19007KT P6SM BKN200
       
KIND 260054Z 27010KT 10SM FEW039 SCT250 M02/M09 A3002 RMK AO2 SLP174 T10171089
KIND 252320Z 2600/2706 28010G20KT P6SM BKN050 
     FM260200 28008KT P6SM SCT080 
     FM260900 VRB04KT P6SM FEW250 
     FM261600 19008KT P6SM SCT200 
     FM261800 20011G20KT P6SM SCT200 
     FM262300 21008KT P6SM BKN150